Main page
Satellite images 10-day forecastsClimateMarine weather Cyclones Lightning AirportsFAQ Newsletter About
Weather : Europe Africa North America South America Asia Australia-Oceania Others
Languages Contact

Bucharest, Romania

Henri Coandă International Airport

latitude: 44-33N, longitude: 026-06E, elevation: 95 m


METAR: LROP 041630Z 22006KT CAVOK 07/M04 Q1023 NOSIG
TAF: LROP 041100Z 0412/0512 25012KT CAVOK BECMG 0502/0504 08014KT BECMG 0508/0510 07018G28KT

Time: 18:40 (16:40 UTC)

Current weather observation

The report was made 10 minutes ago, at 16:30 UTC
Wind 6 kt from the Southwest
Temperature 7°C
Humidity 45%
Pressure 1023 hPa
Visibility 10 km or more
no clouds below 1500 m and no cumulonimbus

Change units

Forecast

The report was made 5 hours and 40 minutes ago, at 11:00 UTC
Forecast valid from 04 at 12 UTC to 05 at 12 UTC
Wind 12 kt from the West/Southwest
Visibility 10 km or more
no clouds below 1500 m and no cumulonimbus
Becoming
from 05 at 02 UTC to 05 at 04 UTC
Wind 14 kt from the East
Becoming
from 05 at 08 UTC to 05 at 10 UTC
Wind 18 kt from the East/Northeast with gusts up to 28 kt
The information on this site is subject to a disclaimer
Weather : Europe Africa North America South America Asia Australia-Oceania Others
Satellite images 10-day forecastsClimateMarine weather Cyclones Lightning AirportsFAQ Languages Contact Newsletter About